sensor_id;sensor_type;location;lat;lon;timestamp;P1;durP1;ratioP1;P2;durP2;ratioP2
25525;SDS011;13424;48.424;11.258;2022-09-27T00:01:50;4.20;;;2.75;;
25525;SDS011;13424;48.424;11.258;2022-09-27T00:04:16;3.40;;;2.47;;
25525;SDS011;13424;48.424;11.258;2022-09-27T00:06:42;5.05;;;2.40;;
25525;SDS011;13424;48.424;11.258;2022-09-27T00:09:08;3.03;;;2.35;;
25525;SDS011;13424;48.424;11.258;2022-09-27T00:11:37;2.58;;;2.28;;
25525;SDS011;13424;48.424;11.258;2022-09-27T00:14:07;4.90;;;2.92;;
25525;SDS011;13424;48.424;11.258;2022-09-27T00:16:37;3.55;;;2.60;;
25525;SDS011;13424;48.424;11.258;2022-09-27T00:19:15;3.17;;;2.53;;
25525;SDS011;13424;48.424;11.258;2022-09-27T00:21:48;4.47;;;2.70;;
25525;SDS011;13424;48.424;11.258;2022-09-27T00:24:17;5.55;;;3.78;;
25525;SDS011;13424;48.424;11.258;2022-09-27T00:26:46;2.70;;;2.50;;
25525;SDS011;13424;48.424;11.258;2022-09-27T00:29:14;3.35;;;2.53;;
25525;SDS011;13424;48.424;11.258;2022-09-27T00:31:45;4.97;;;2.90;;
25525;SDS011;13424;48.424;11.258;2022-09-27T00:34:20;2.75;;;2.55;;
25525;SDS011;13424;48.424;11.258;2022-09-27T00:36:49;5.30;;;3.00;;
25525;SDS011;13424;48.424;11.258;2022-09-27T00:39:16;5.70;;;2.88;;
25525;SDS011;13424;48.424;11.258;2022-09-27T00:41:43;3.55;;;2.78;;
25525;SDS011;13424;48.424;11.258;2022-09-27T00:55:32;3.10;;;2.50;;
25525;SDS011;13424;48.424;11.258;2022-09-27T00:58:04;3.60;;;2.78;;
25525;SDS011;13424;48.424;11.258;2022-09-27T01:00:32;3.15;;;2.78;;
25525;SDS011;13424;48.424;11.258;2022-09-27T01:03:00;4.25;;;2.55;;
25525;SDS011;13424;48.424;11.258;2022-09-27T01:05:31;4.45;;;2.85;;
25525;SDS011;13424;48.424;11.258;2022-09-27T01:07:57;5.80;;;2.75;;
25525;SDS011;13424;48.424;11.258;2022-09-27T01:10:31;3.53;;;2.70;;
25525;SDS011;13424;48.424;11.258;2022-09-27T01:13:24;3.35;;;2.78;;
25525;SDS011;13424;48.424;11.258;2022-09-27T01:22:57;3.10;;;2.28;;
25525;SDS011;13424;48.424;11.258;2022-09-27T01:32:07;3.35;;;2.05;;
25525;SDS011;13424;48.424;11.258;2022-09-27T01:35:14;2.35;;;2.15;;
25525;SDS011;13424;48.424;11.258;2022-09-27T01:41:07;2.67;;;2.35;;
25525;SDS011;13424;48.424;11.258;2022-09-27T01:47:14;3.15;;;2.03;;
25525;SDS011;13424;48.424;11.258;2022-09-27T01:50:05;3.03;;;2.55;;
25525;SDS011;13424;48.424;11.258;2022-09-27T01:53:02;2.83;;;2.63;;
25525;SDS011;13424;48.424;11.258;2022-09-27T01:55:53;2.60;;;2.10;;
25525;SDS011;13424;48.424;11.258;2022-09-27T01:58:50;7.57;;;2.05;;
25525;SDS011;13424;48.424;11.258;2022-09-27T02:01:57;4.43;;;1.92;;
25525;SDS011;13424;48.424;11.258;2022-09-27T02:04:48;3.55;;;2.00;;
25525;SDS011;13424;48.424;11.258;2022-09-27T02:07:23;3.40;;;2.17;;
25525;SDS011;13424;48.424;11.258;2022-09-27T02:10:10;1.95;;;1.85;;
25525;SDS011;13424;48.424;11.258;2022-09-27T02:13:18;1.85;;;1.65;;
25525;SDS011;13424;48.424;11.258;2022-09-27T02:16:17;3.78;;;1.80;;
25525;SDS011;13424;48.424;11.258;2022-09-27T02:22:52;3.25;;;1.42;;
25525;SDS011;13424;48.424;11.258;2022-09-27T02:30:47;2.00;;;1.73;;
25525;SDS011;13424;48.424;11.258;2022-09-27T02:33:32;1.98;;;1.77;;
25525;SDS011;13424;48.424;11.258;2022-09-27T02:36:14;1.58;;;1.48;;
25525;SDS011;13424;48.424;11.258;2022-09-27T02:38:42;1.67;;;1.40;;
25525;SDS011;13424;48.424;11.258;2022-09-27T02:41:18;1.60;;;1.50;;
25525;SDS011;13424;48.424;11.258;2022-09-27T02:43:53;3.33;;;2.08;;
25525;SDS011;13424;48.424;11.258;2022-09-27T02:49:47;3.55;;;1.63;;
25525;SDS011;13424;48.424;11.258;2022-09-27T02:53:05;1.92;;;1.80;;
25525;SDS011;13424;48.424;11.258;2022-09-27T03:05:48;2.17;;;1.95;;
25525;SDS011;13424;48.424;11.258;2022-09-27T03:08:26;3.63;;;1.75;;
25525;SDS011;13424;48.424;11.258;2022-09-27T03:10:52;2.20;;;2.00;;
25525;SDS011;13424;48.424;11.258;2022-09-27T03:13:18;3.03;;;1.90;;
25525;SDS011;13424;48.424;11.258;2022-09-27T03:15:45;4.15;;;2.10;;
25525;SDS011;13424;48.424;11.258;2022-09-27T03:18:17;2.90;;;2.00;;
25525;SDS011;13424;48.424;11.258;2022-09-27T03:21:01;5.05;;;1.80;;
25525;SDS011;13424;48.424;11.258;2022-09-27T03:23:28;2.28;;;2.08;;
25525;SDS011;13424;48.424;11.258;2022-09-27T03:25:57;4.75;;;2.08;;
25525;SDS011;13424;48.424;11.258;2022-09-27T03:28:23;2.20;;;2.10;;
25525;SDS011;13424;48.424;11.258;2022-09-27T03:30:50;3.28;;;1.83;;
25525;SDS011;13424;48.424;11.258;2022-09-27T03:33:42;2.30;;;1.80;;
25525;SDS011;13424;48.424;11.258;2022-09-27T03:36:10;3.30;;;2.15;;
25525;SDS011;13424;48.424;11.258;2022-09-27T03:38:37;3.95;;;2.20;;
25525;SDS011;13424;48.424;11.258;2022-09-27T03:41:06;3.42;;;2.30;;
25525;SDS011;13424;48.424;11.258;2022-09-27T03:43:32;2.65;;;2.30;;
25525;SDS011;13424;48.424;11.258;2022-09-27T03:46:02;2.65;;;2.03;;
25525;SDS011;13424;48.424;11.258;2022-09-27T03:48:28;3.35;;;2.42;;
25525;SDS011;13424;48.424;11.258;2022-09-27T03:50:55;6.22;;;2.25;;
25525;SDS011;13424;48.424;11.258;2022-09-27T03:53:21;3.65;;;2.30;;
25525;SDS011;13424;48.424;11.258;2022-09-27T03:55:48;6.38;;;2.20;;
25525;SDS011;13424;48.424;11.258;2022-09-27T03:58:17;4.47;;;2.20;;
25525;SDS011;13424;48.424;11.258;2022-09-27T04:00:44;3.05;;;2.40;;
25525;SDS011;13424;48.424;11.258;2022-09-27T04:03:11;3.25;;;2.20;;
25525;SDS011;13424;48.424;11.258;2022-09-27T04:05:56;2.67;;;2.05;;
25525;SDS011;13424;48.424;11.258;2022-09-27T04:08:33;3.55;;;2.50;;
25525;SDS011;13424;48.424;11.258;2022-09-27T04:10:59;2.30;;;2.10;;
25525;SDS011;13424;48.424;11.258;2022-09-27T04:13:25;2.65;;;2.40;;
25525;SDS011;13424;48.424;11.258;2022-09-27T04:15:53;4.97;;;3.83;;
25525;SDS011;13424;48.424;11.258;2022-09-27T04:18:44;5.90;;;2.88;;
25525;SDS011;13424;48.424;11.258;2022-09-27T04:21:29;3.58;;;3.03;;
25525;SDS011;13424;48.424;11.258;2022-09-27T04:23:55;3.55;;;2.65;;
25525;SDS011;13424;48.424;11.258;2022-09-27T04:26:22;3.22;;;2.85;;
25525;SDS011;13424;48.424;11.258;2022-09-27T04:29:00;2.33;;;2.10;;
25525;SDS011;13424;48.424;11.258;2022-09-27T04:31:26;2.45;;;2.22;;
25525;SDS011;13424;48.424;11.258;2022-09-27T04:34:28;3.70;;;2.33;;
25525;SDS011;13424;48.424;11.258;2022-09-27T04:37:19;3.47;;;2.00;;
25525;SDS011;13424;48.424;11.258;2022-09-27T04:39:48;2.17;;;1.98;;
25525;SDS011;13424;48.424;11.258;2022-09-27T04:42:15;2.15;;;1.95;;
25525;SDS011;13424;48.424;11.258;2022-09-27T04:44:42;2.15;;;1.67;;
25525;SDS011;13424;48.424;11.258;2022-09-27T04:47:17;2.53;;;2.00;;
25525;SDS011;13424;48.424;11.258;2022-09-27T04:49:46;2.88;;;1.60;;
25525;SDS011;13424;48.424;11.258;2022-09-27T04:55:27;2.45;;;1.60;;
25525;SDS011;13424;48.424;11.258;2022-09-27T04:57:53;2.75;;;2.00;;
25525;SDS011;13424;48.424;11.258;2022-09-27T05:00:20;2.20;;;1.42;;
25525;SDS011;13424;48.424;11.258;2022-09-27T05:02:52;1.92;;;1.55;;
25525;SDS011;13424;48.424;11.258;2022-09-27T05:05:48;4.20;;;1.50;;
25525;SDS011;13424;48.424;11.258;2022-09-27T05:08:14;4.20;;;1.60;;
25525;SDS011;13424;48.424;11.258;2022-09-27T05:11:03;1.77;;;1.50;;
25525;SDS011;13424;48.424;11.258;2022-09-27T05:13:29;2.85;;;1.50;;
25525;SDS011;13424;48.424;11.258;2022-09-27T05:16:01;1.80;;;1.70;;
25525;SDS011;13424;48.424;11.258;2022-09-27T05:18:47;3.25;;;1.75;;
25525;SDS011;13424;48.424;11.258;2022-09-27T05:21:39;1.27;;;1.17;;
25525;SDS011;13424;48.424;11.258;2022-09-27T05:24:05;1.73;;;1.42;;
25525;SDS011;13424;48.424;11.258;2022-09-27T05:26:32;1.65;;;1.13;;
25525;SDS011;13424;48.424;11.258;2022-09-27T05:29:20;2.55;;;1.40;;
25525;SDS011;13424;48.424;11.258;2022-09-27T05:32:01;1.35;;;0.93;;
25525;SDS011;13424;48.424;11.258;2022-09-27T05:34:28;0.98;;;0.98;;
25525;SDS011;13424;48.424;11.258;2022-09-27T05:36:57;2.20;;;1.42;;
25525;SDS011;13424;48.424;11.258;2022-09-27T05:39:24;4.80;;;1.30;;
25525;SDS011;13424;48.424;11.258;2022-09-27T05:41:50;1.38;;;1.00;;
25525;SDS011;13424;48.424;11.258;2022-09-27T05:44:19;3.20;;;1.40;;
25525;SDS011;13424;48.424;11.258;2022-09-27T05:46:54;1.55;;;1.40;;
25525;SDS011;13424;48.424;11.258;2022-09-27T05:49:20;1.30;;;1.20;;
25525;SDS011;13424;48.424;11.258;2022-09-27T05:51:46;1.40;;;1.20;;
25525;SDS011;13424;48.424;11.258;2022-09-27T05:54:12;1.50;;;1.35;;
25525;SDS011;13424;48.424;11.258;2022-09-27T05:56:39;3.15;;;1.30;;
25525;SDS011;13424;48.424;11.258;2022-09-27T06:02:55;1.35;;;1.23;;
25525;SDS011;13424;48.424;11.258;2022-09-27T06:05:56;1.50;;;1.40;;
25525;SDS011;13424;48.424;11.258;2022-09-27T06:08:37;1.40;;;1.30;;
25525;SDS011;13424;48.424;11.258;2022-09-27T06:11:07;2.65;;;1.48;;
25525;SDS011;13424;48.424;11.258;2022-09-27T06:13:35;2.65;;;1.10;;
25525;SDS011;13424;48.424;11.258;2022-09-27T06:16:02;2.42;;;1.60;;
25525;SDS011;13424;48.424;11.258;2022-09-27T06:18:29;1.60;;;1.48;;
25525;SDS011;13424;48.424;11.258;2022-09-27T06:20:58;1.38;;;1.27;;
25525;SDS011;13424;48.424;11.258;2022-09-27T06:23:25;1.67;;;1.40;;
25525;SDS011;13424;48.424;11.258;2022-09-27T06:25:55;2.05;;;1.85;;
25525;SDS011;13424;48.424;11.258;2022-09-27T06:28:39;3.20;;;1.60;;
25525;SDS011;13424;48.424;11.258;2022-09-27T06:31:06;2.55;;;1.55;;
25525;SDS011;13424;48.424;11.258;2022-09-27T06:34:11;1.98;;;1.60;;
25525;SDS011;13424;48.424;11.258;2022-09-27T06:36:37;1.83;;;1.40;;
25525;SDS011;13424;48.424;11.258;2022-09-27T06:39:03;4.07;;;1.65;;
25525;SDS011;13424;48.424;11.258;2022-09-27T06:41:33;1.88;;;1.30;;
25525;SDS011;13424;48.424;11.258;2022-09-27T06:44:15;1.73;;;1.60;;
25525;SDS011;13424;48.424;11.258;2022-09-27T06:47:00;2.45;;;1.65;;
25525;SDS011;13424;48.424;11.258;2022-09-27T06:53:15;1.98;;;1.70;;
25525;SDS011;13424;48.424;11.258;2022-09-27T06:55:43;1.58;;;1.48;;
25525;SDS011;13424;48.424;11.258;2022-09-27T06:58:10;1.50;;;1.40;;
25525;SDS011;13424;48.424;11.258;2022-09-27T07:01:14;3.22;;;1.83;;
25525;SDS011;13424;48.424;11.258;2022-09-27T07:04:17;3.97;;;1.63;;
25525;SDS011;13424;48.424;11.258;2022-09-27T07:07:01;4.63;;;1.42;;
25525;SDS011;13424;48.424;11.258;2022-09-27T07:09:31;4.68;;;2.03;;
25525;SDS011;13424;48.424;11.258;2022-09-27T07:11:57;4.75;;;1.45;;
25525;SDS011;13424;48.424;11.258;2022-09-27T07:14:23;1.95;;;1.40;;
25525;SDS011;13424;48.424;11.258;2022-09-27T07:16:55;4.80;;;1.98;;
25525;SDS011;13424;48.424;11.258;2022-09-27T07:19:23;1.73;;;1.63;;
25525;SDS011;13424;48.424;11.258;2022-09-27T07:21:50;2.50;;;1.20;;
25525;SDS011;13424;48.424;11.258;2022-09-27T07:24:17;2.92;;;1.40;;
25525;SDS011;13424;48.424;11.258;2022-09-27T07:26:48;4.05;;;1.90;;
25525;SDS011;13424;48.424;11.258;2022-09-27T07:29:16;2.22;;;1.33;;
25525;SDS011;13424;48.424;11.258;2022-09-27T07:31:44;2.97;;;2.10;;
25525;SDS011;13424;48.424;11.258;2022-09-27T07:34:10;2.78;;;1.92;;
25525;SDS011;13424;48.424;11.258;2022-09-27T07:36:37;4.15;;;1.40;;
25525;SDS011;13424;48.424;11.258;2022-09-27T07:39:03;3.30;;;1.27;;
25525;SDS011;13424;48.424;11.258;2022-09-27T07:41:31;2.55;;;1.42;;
25525;SDS011;13424;48.424;11.258;2022-09-27T07:43:58;3.33;;;1.23;;
25525;SDS011;13424;48.424;11.258;2022-09-27T07:46:29;1.33;;;1.23;;
25525;SDS011;13424;48.424;11.258;2022-09-27T07:49:13;2.25;;;1.40;;
25525;SDS011;13424;48.424;11.258;2022-09-27T07:51:48;1.33;;;1.23;;
25525;SDS011;13424;48.424;11.258;2022-09-27T07:54:40;3.85;;;1.08;;
25525;SDS011;13424;48.424;11.258;2022-09-27T07:57:26;3.22;;;1.35;;
25525;SDS011;13424;48.424;11.258;2022-09-27T07:59:55;5.75;;;1.42;;
25525;SDS011;13424;48.424;11.258;2022-09-27T08:02:21;4.72;;;1.45;;
25525;SDS011;13424;48.424;11.258;2022-09-27T08:04:55;2.90;;;1.30;;
25525;SDS011;13424;48.424;11.258;2022-09-27T08:07:25;5.35;;;1.60;;
25525;SDS011;13424;48.424;11.258;2022-09-27T08:09:54;1.33;;;0.95;;
25525;SDS011;13424;48.424;11.258;2022-09-27T08:12:22;3.97;;;1.45;;
25525;SDS011;13424;48.424;11.258;2022-09-27T08:18:05;3.63;;;1.40;;
25525;SDS011;13424;48.424;11.258;2022-09-27T08:20:50;2.22;;;1.13;;
25525;SDS011;13424;48.424;11.258;2022-09-27T08:23:23;4.63;;;1.10;;
25525;SDS011;13424;48.424;11.258;2022-09-27T08:26:03;1.60;;;1.17;;
25525;SDS011;13424;48.424;11.258;2022-09-27T08:28:43;4.78;;;1.23;;
25525;SDS011;13424;48.424;11.258;2022-09-27T08:31:17;2.88;;;1.13;;
25525;SDS011;13424;48.424;11.258;2022-09-27T08:33:48;3.90;;;1.20;;
25525;SDS011;13424;48.424;11.258;2022-09-27T08:36:17;1.00;;;0.90;;
25525;SDS011;13424;48.424;11.258;2022-09-27T08:38:48;1.80;;;1.10;;
25525;SDS011;13424;48.424;11.258;2022-09-27T08:50:19;1.75;;;1.05;;
25525;SDS011;13424;48.424;11.258;2022-09-27T08:53:21;7.30;;;1.27;;
25525;SDS011;13424;48.424;11.258;2022-09-27T08:56:14;1.20;;;1.10;;
25525;SDS011;13424;48.424;11.258;2022-09-27T08:59:11;2.08;;;1.55;;
25525;SDS011;13424;48.424;11.258;2022-09-27T09:01:47;1.38;;;1.25;;
25525;SDS011;13424;48.424;11.258;2022-09-27T09:04:32;2.53;;;0.85;;
25525;SDS011;13424;48.424;11.258;2022-09-27T09:21:05;0.70;;;0.70;;
25525;SDS011;13424;48.424;11.258;2022-09-27T09:30:19;1.55;;;0.90;;
25525;SDS011;13424;48.424;11.258;2022-09-27T09:37:07;1.70;;;0.98;;
25525;SDS011;13424;48.424;11.258;2022-09-27T09:43:17;0.95;;;0.70;;
25525;SDS011;13424;48.424;11.258;2022-09-27T09:46:17;1.25;;;0.52;;
25525;SDS011;13424;48.424;11.258;2022-09-27T09:49:32;1.33;;;1.23;;
25525;SDS011;13424;48.424;11.258;2022-09-27T09:52:11;0.95;;;0.70;;
25525;SDS011;13424;48.424;11.258;2022-09-27T09:55:06;0.77;;;0.77;;
25525;SDS011;13424;48.424;11.258;2022-09-27T09:58:00;2.97;;;0.63;;
25525;SDS011;13424;48.424;11.258;2022-09-27T10:00:59;2.15;;;0.77;;
25525;SDS011;13424;48.424;11.258;2022-09-27T10:07:15;0.70;;;0.60;;
25525;SDS011;13424;48.424;11.258;2022-09-27T10:10:25;1.38;;;0.80;;
25525;SDS011;13424;48.424;11.258;2022-09-27T10:13:15;0.80;;;0.80;;
25525;SDS011;13424;48.424;11.258;2022-09-27T10:16:03;0.68;;;0.63;;
25525;SDS011;13424;48.424;11.258;2022-09-27T10:18:37;1.35;;;0.90;;
25525;SDS011;13424;48.424;11.258;2022-09-27T10:21:21;3.70;;;0.95;;
25525;SDS011;13424;48.424;11.258;2022-09-27T10:24:11;0.68;;;0.68;;
25525;SDS011;13424;48.424;11.258;2022-09-27T10:27:02;0.57;;;0.47;;
25525;SDS011;13424;48.424;11.258;2022-09-27T10:29:32;1.77;;;0.52;;
25525;SDS011;13424;48.424;11.258;2022-09-27T10:32:03;1.65;;;0.40;;
25525;SDS011;13424;48.424;11.258;2022-09-27T10:34:43;0.57;;;0.57;;
25525;SDS011;13424;48.424;11.258;2022-09-27T10:39:41;0.67;;;0.60;;
25525;SDS011;13424;48.424;11.258;2022-09-27T10:42:21;0.40;;;0.40;;
25525;SDS011;13424;48.424;11.258;2022-09-27T10:52:01;0.75;;;0.40;;
25525;SDS011;13424;48.424;11.258;2022-09-27T10:54:54;0.43;;;0.43;;
25525;SDS011;13424;48.424;11.258;2022-09-27T10:57:47;0.82;;;0.70;;
25525;SDS011;13424;48.424;11.258;2022-09-27T11:00:23;0.43;;;0.20;;
25525;SDS011;13424;48.424;11.258;2022-09-27T11:03:04;0.60;;;0.20;;
25525;SDS011;13424;48.424;11.258;2022-09-27T11:05:39;1.17;;;0.45;;
25525;SDS011;13424;48.424;11.258;2022-09-27T11:13:59;0.50;;;0.50;;
25525;SDS011;13424;48.424;11.258;2022-09-27T11:20:20;0.45;;;0.45;;
25525;SDS011;13424;48.424;11.258;2022-09-27T11:23:13;2.35;;;0.73;;
25525;SDS011;13424;48.424;11.258;2022-09-27T11:26:13;0.50;;;0.50;;
25525;SDS011;13424;48.424;11.258;2022-09-27T11:29:38;1.25;;;0.50;;
25525;SDS011;13424;48.424;11.258;2022-09-27T11:45:39;1.75;;;0.70;;
25525;SDS011;13424;48.424;11.258;2022-09-27T11:55:20;0.40;;;0.40;;
25525;SDS011;13424;48.424;11.258;2022-09-27T11:58:18;0.35;;;0.35;;
25525;SDS011;13424;48.424;11.258;2022-09-27T12:01:24;0.32;;;0.30;;
25525;SDS011;13424;48.424;11.258;2022-09-27T12:04:26;0.40;;;0.40;;
25525;SDS011;13424;48.424;11.258;2022-09-27T12:07:42;1.15;;;0.57;;
25525;SDS011;13424;48.424;11.258;2022-09-27T12:10:42;0.35;;;0.30;;
25525;SDS011;13424;48.424;11.258;2022-09-27T12:13:18;0.95;;;0.40;;
25525;SDS011;13424;48.424;11.258;2022-09-27T12:15:58;0.30;;;0.30;;
25525;SDS011;13424;48.424;11.258;2022-09-27T12:23:05;0.70;;;0.70;;
25525;SDS011;13424;48.424;11.258;2022-09-27T12:26:25;0.88;;;0.88;;
25525;SDS011;13424;48.424;11.258;2022-09-27T12:29:13;1.10;;;1.00;;
25525;SDS011;13424;48.424;11.258;2022-09-27T12:35:17;2.45;;;1.25;;
25525;SDS011;13424;48.424;11.258;2022-09-27T12:38:12;2.15;;;1.38;;
25525;SDS011;13424;48.424;11.258;2022-09-27T12:40:45;2.90;;;1.25;;
25525;SDS011;13424;48.424;11.258;2022-09-27T12:46:34;1.95;;;1.13;;
25525;SDS011;13424;48.424;11.258;2022-09-27T12:52:54;1.23;;;1.00;;
25525;SDS011;13424;48.424;11.258;2022-09-27T12:59:17;2.70;;;1.25;;
25525;SDS011;13424;48.424;11.258;2022-09-27T13:09:15;2.72;;;1.33;;
25525;SDS011;13424;48.424;11.258;2022-09-27T13:22:57;1.20;;;1.10;;
25525;SDS011;13424;48.424;11.258;2022-09-27T13:25:54;3.58;;;1.48;;
25525;SDS011;13424;48.424;11.258;2022-09-27T13:38:04;1.63;;;1.08;;
25525;SDS011;13424;48.424;11.258;2022-09-27T13:40:48;1.20;;;1.15;;
25525;SDS011;13424;48.424;11.258;2022-09-27T13:46:27;2.50;;;1.10;;
25525;SDS011;13424;48.424;11.258;2022-09-27T13:49:14;1.20;;;0.82;;
25525;SDS011;13424;48.424;11.258;2022-09-27T13:52:32;0.73;;;0.68;;
25525;SDS011;13424;48.424;11.258;2022-09-27T13:55:49;0.95;;;0.55;;
25525;SDS011;13424;48.424;11.258;2022-09-27T14:01:47;0.75;;;0.60;;
25525;SDS011;13424;48.424;11.258;2022-09-27T14:11:32;1.02;;;0.73;;
25525;SDS011;13424;48.424;11.258;2022-09-27T14:14:05;0.52;;;0.52;;
25525;SDS011;13424;48.424;11.258;2022-09-27T14:16:43;1.95;;;0.70;;
25525;SDS011;13424;48.424;11.258;2022-09-27T14:19:25;1.58;;;0.80;;
25525;SDS011;13424;48.424;11.258;2022-09-27T14:24:52;0.90;;;0.85;;
25525;SDS011;13424;48.424;11.258;2022-09-27T14:27:28;1.65;;;0.90;;
25525;SDS011;13424;48.424;11.258;2022-09-27T14:30:33;1.60;;;0.85;;
25525;SDS011;13424;48.424;11.258;2022-09-27T14:33:39;0.77;;;0.55;;
25525;SDS011;13424;48.424;11.258;2022-09-27T14:36:33;1.85;;;0.68;;
25525;SDS011;13424;48.424;11.258;2022-09-27T14:39:30;1.42;;;0.90;;
25525;SDS011;13424;48.424;11.258;2022-09-27T14:42:20;1.80;;;0.90;;
25525;SDS011;13424;48.424;11.258;2022-09-27T14:44:50;0.90;;;0.90;;
25525;SDS011;13424;48.424;11.258;2022-09-27T14:47:25;0.70;;;0.65;;
25525;SDS011;13424;48.424;11.258;2022-09-27T14:49:55;0.90;;;0.90;;
25525;SDS011;13424;48.424;11.258;2022-09-27T14:52:37;8.13;;;1.30;;
25525;SDS011;13424;48.424;11.258;2022-09-27T14:55:13;1.85;;;0.90;;
25525;SDS011;13424;48.424;11.258;2022-09-27T14:57:48;1.00;;;0.90;;
25525;SDS011;13424;48.424;11.258;2022-09-27T15:03:00;4.03;;;1.55;;
25525;SDS011;13424;48.424;11.258;2022-09-27T15:05:34;0.77;;;0.77;;
25525;SDS011;13424;48.424;11.258;2022-09-27T15:08:05;1.30;;;1.20;;
25525;SDS011;13424;48.424;11.258;2022-09-27T15:10:34;1.17;;;1.08;;
25525;SDS011;13424;48.424;11.258;2022-09-27T15:13:01;0.90;;;0.90;;
25525;SDS011;13424;48.424;11.258;2022-09-27T15:15:38;1.10;;;1.00;;
25525;SDS011;13424;48.424;11.258;2022-09-27T15:18:29;3.38;;;1.30;;
25525;SDS011;13424;48.424;11.258;2022-09-27T15:21:11;3.78;;;1.23;;
25525;SDS011;13424;48.424;11.258;2022-09-27T15:23:55;1.77;;;0.90;;
25525;SDS011;13424;48.424;11.258;2022-09-27T15:26:38;1.35;;;0.90;;
25525;SDS011;13424;48.424;11.258;2022-09-27T15:29:18;3.08;;;1.20;;
25525;SDS011;13424;48.424;11.258;2022-09-27T15:32:01;2.35;;;1.13;;
25525;SDS011;13424;48.424;11.258;2022-09-27T15:34:30;2.47;;;1.33;;
25525;SDS011;13424;48.424;11.258;2022-09-27T15:37:02;1.13;;;1.02;;
25525;SDS011;13424;48.424;11.258;2022-09-27T15:39:33;3.22;;;1.23;;
25525;SDS011;13424;48.424;11.258;2022-09-27T15:42:18;1.25;;;1.13;;
25525;SDS011;13424;48.424;11.258;2022-09-27T15:52:52;1.23;;;0.70;;
25525;SDS011;13424;48.424;11.258;2022-09-27T15:55:24;0.63;;;0.60;;
25525;SDS011;13424;48.424;11.258;2022-09-27T16:04:09;0.60;;;0.60;;
25525;SDS011;13424;48.424;11.258;2022-09-27T16:06:35;0.73;;;0.70;;
25525;SDS011;13424;48.424;11.258;2022-09-27T16:09:02;1.60;;;0.90;;
25525;SDS011;13424;48.424;11.258;2022-09-27T16:11:31;0.60;;;0.60;;
25525;SDS011;13424;48.424;11.258;2022-09-27T16:13:57;0.65;;;0.65;;
25525;SDS011;13424;48.424;11.258;2022-09-27T16:16:23;0.93;;;0.75;;
25525;SDS011;13424;48.424;11.258;2022-09-27T16:19:26;0.75;;;0.70;;
25525;SDS011;13424;48.424;11.258;2022-09-27T16:21:52;1.45;;;0.70;;
25525;SDS011;13424;48.424;11.258;2022-09-27T16:24:19;2.22;;;0.80;;
25525;SDS011;13424;48.424;11.258;2022-09-27T16:27:23;1.02;;;0.80;;
25525;SDS011;13424;48.424;11.258;2022-09-27T16:29:54;0.80;;;0.80;;
25525;SDS011;13424;48.424;11.258;2022-09-27T16:32:22;3.63;;;0.95;;
25525;SDS011;13424;48.424;11.258;2022-09-27T16:34:52;1.33;;;1.00;;
25525;SDS011;13424;48.424;11.258;2022-09-27T16:37:18;0.70;;;0.70;;
25525;SDS011;13424;48.424;11.258;2022-09-27T16:39:44;1.67;;;1.20;;
25525;SDS011;13424;48.424;11.258;2022-09-27T16:42:10;1.67;;;1.48;;
25525;SDS011;13424;48.424;11.258;2022-09-27T16:44:37;3.42;;;1.30;;
25525;SDS011;13424;48.424;11.258;2022-09-27T16:50:20;1.02;;;0.77;;
25525;SDS011;13424;48.424;11.258;2022-09-27T16:53:33;1.13;;;0.95;;
25525;SDS011;13424;48.424;11.258;2022-09-27T16:55:59;0.80;;;0.80;;
25525;SDS011;13424;48.424;11.258;2022-09-27T16:58:27;1.05;;;0.70;;
25525;SDS011;13424;48.424;11.258;2022-09-27T17:00:56;0.75;;;0.73;;
25525;SDS011;13424;48.424;11.258;2022-09-27T17:03:23;0.70;;;0.70;;
25525;SDS011;13424;48.424;11.258;2022-09-27T17:05:49;1.75;;;0.80;;
25525;SDS011;13424;48.424;11.258;2022-09-27T17:08:15;0.85;;;0.82;;
25525;SDS011;13424;48.424;11.258;2022-09-27T17:10:44;1.70;;;0.95;;
25525;SDS011;13424;48.424;11.258;2022-09-27T17:13:19;1.33;;;0.90;;
25525;SDS011;13424;48.424;11.258;2022-09-27T17:15:45;1.15;;;1.05;;
25525;SDS011;13424;48.424;11.258;2022-09-27T17:18:12;1.35;;;1.20;;
25525;SDS011;13424;48.424;11.258;2022-09-27T17:20:39;1.05;;;0.90;;
25525;SDS011;13424;48.424;11.258;2022-09-27T17:23:05;3.35;;;1.40;;
25525;SDS011;13424;48.424;11.258;2022-09-27T17:25:31;1.83;;;0.82;;
25525;SDS011;13424;48.424;11.258;2022-09-27T17:27:58;1.40;;;1.30;;
25525;SDS011;13424;48.424;11.258;2022-09-27T17:30:24;1.20;;;1.10;;
25525;SDS011;13424;48.424;11.258;2022-09-27T17:32:50;1.83;;;1.27;;
25525;SDS011;13424;48.424;11.258;2022-09-27T17:35:19;1.80;;;1.70;;
25525;SDS011;13424;48.424;11.258;2022-09-27T17:37:46;1.10;;;1.00;;
25525;SDS011;13424;48.424;11.258;2022-09-27T17:40:14;3.33;;;1.33;;
25525;SDS011;13424;48.424;11.258;2022-09-27T17:42:41;1.10;;;1.10;;
25525;SDS011;13424;48.424;11.258;2022-09-27T17:45:07;1.85;;;1.27;;
25525;SDS011;13424;48.424;11.258;2022-09-27T17:47:34;1.42;;;1.33;;
25525;SDS011;13424;48.424;11.258;2022-09-27T17:50:38;2.72;;;1.20;;
25525;SDS011;13424;48.424;11.258;2022-09-27T17:53:04;1.33;;;1.23;;
25525;SDS011;13424;48.424;11.258;2022-09-27T17:55:30;2.90;;;1.13;;
25525;SDS011;13424;48.424;11.258;2022-09-27T17:57:56;1.38;;;1.13;;
25525;SDS011;13424;48.424;11.258;2022-09-27T18:00:22;1.33;;;1.20;;
25525;SDS011;13424;48.424;11.258;2022-09-27T18:02:48;1.23;;;1.13;;
25525;SDS011;13424;48.424;11.258;2022-09-27T18:05:17;3.78;;;1.48;;
25525;SDS011;13424;48.424;11.258;2022-09-27T18:07:46;0.85;;;0.80;;
25525;SDS011;13424;48.424;11.258;2022-09-27T18:10:13;5.00;;;1.13;;
25525;SDS011;13424;48.424;11.258;2022-09-27T18:12:41;1.10;;;0.98;;
25525;SDS011;13424;48.424;11.258;2022-09-27T18:15:07;4.22;;;1.05;;
25525;SDS011;13424;48.424;11.258;2022-09-27T18:17:33;2.45;;;1.30;;
25525;SDS011;13424;48.424;11.258;2022-09-27T18:20:01;3.70;;;0.85;;
25525;SDS011;13424;48.424;11.258;2022-09-27T18:22:29;2.20;;;1.30;;
25525;SDS011;13424;48.424;11.258;2022-09-27T18:24:55;0.90;;;0.88;;
25525;SDS011;13424;48.424;11.258;2022-09-27T18:27:24;2.60;;;1.00;;
25525;SDS011;13424;48.424;11.258;2022-09-27T18:29:50;0.80;;;0.80;;
25525;SDS011;13424;48.424;11.258;2022-09-27T18:32:16;1.40;;;1.20;;
25525;SDS011;13424;48.424;11.258;2022-09-27T18:34:42;1.15;;;1.00;;
25525;SDS011;13424;48.424;11.258;2022-09-27T18:37:08;1.33;;;1.23;;
25525;SDS011;13424;48.424;11.258;2022-09-27T18:39:34;0.90;;;0.90;;
25525;SDS011;13424;48.424;11.258;2022-09-27T18:42:00;1.27;;;1.17;;
25525;SDS011;13424;48.424;11.258;2022-09-27T18:44:26;0.90;;;0.90;;
25525;SDS011;13424;48.424;11.258;2022-09-27T18:46:52;2.08;;;1.10;;
25525;SDS011;13424;48.424;11.258;2022-09-27T18:49:18;1.40;;;1.20;;
25525;SDS011;13424;48.424;11.258;2022-09-27T18:51:44;1.50;;;1.40;;
25525;SDS011;13424;48.424;11.258;2022-09-27T18:54:20;1.98;;;1.40;;
25525;SDS011;13424;48.424;11.258;2022-09-27T18:56:48;3.45;;;1.40;;
25525;SDS011;13424;48.424;11.258;2022-09-27T18:59:16;1.27;;;1.15;;
25525;SDS011;13424;48.424;11.258;2022-09-27T19:01:45;1.50;;;1.33;;
25525;SDS011;13424;48.424;11.258;2022-09-27T19:04:13;1.33;;;1.23;;
25525;SDS011;13424;48.424;11.258;2022-09-27T19:10:48;2.00;;;1.42;;
25525;SDS011;13424;48.424;11.258;2022-09-27T19:13:17;2.70;;;1.60;;
25525;SDS011;13424;48.424;11.258;2022-09-27T19:15:53;1.70;;;1.60;;
25525;SDS011;13424;48.424;11.258;2022-09-27T19:18:21;1.85;;;1.65;;
25525;SDS011;13424;48.424;11.258;2022-09-27T19:20:51;5.10;;;1.75;;
25525;SDS011;13424;48.424;11.258;2022-09-27T19:23:21;1.83;;;1.70;;